createdAt,value
2022-11-05T00:00:16.975Z,5.53
2022-11-05T00:03:03.860Z,6.47
2022-11-05T00:05:50.672Z,5.30
2022-11-05T00:08:36.164Z,5.20
2022-11-05T00:11:04.603Z,4.83
2022-11-05T00:13:50.228Z,6.17
2022-11-05T00:16:35.089Z,5.03
2022-11-05T00:19:10.635Z,4.87
2022-11-05T00:21:57.558Z,5.20
2022-11-05T00:24:44.122Z,4.60
2022-11-05T00:27:12.867Z,4.03
2022-11-05T00:29:41.224Z,4.17
2022-11-05T00:32:09.619Z,4.27
2022-11-05T00:34:39.336Z,3.83
2022-11-05T00:37:07.621Z,3.83
2022-11-05T00:39:36.307Z,3.83
2022-11-05T00:42:22.023Z,4.30
2022-11-05T00:45:02.486Z,3.53
2022-11-05T00:47:48.511Z,3.77
2022-11-05T00:50:18.409Z,4.13
2022-11-05T00:53:00.485Z,4.00
2022-11-05T00:55:34.792Z,9.67
2022-11-05T00:58:04.383Z,6.17
2022-11-05T01:00:34.220Z,4.30
2022-11-05T01:03:04.802Z,8.17
2022-11-05T01:05:36.183Z,6.70
2022-11-05T01:08:04.574Z,4.20
2022-11-05T01:10:33.473Z,3.97
2022-11-05T01:13:01.885Z,3.90
2022-11-05T01:15:30.307Z,3.67
2022-11-05T01:17:58.655Z,4.13
2022-11-05T01:20:27.901Z,3.80
2022-11-05T01:22:57.599Z,3.73
2022-11-05T01:25:26.247Z,3.73
2022-11-05T01:27:54.584Z,3.77
2022-11-05T01:30:23.280Z,3.40
2022-11-05T01:32:51.791Z,4.03
2022-11-05T01:35:20.532Z,3.80
2022-11-05T01:37:49.264Z,3.73
2022-11-05T01:40:21.482Z,3.50
2022-11-05T01:42:50.204Z,3.70
2022-11-05T01:45:20.789Z,4.47
2022-11-05T01:47:58.008Z,3.95
2022-11-05T01:50:33.818Z,4.20
2022-11-05T01:53:07.012Z,4.27
2022-11-05T01:55:42.373Z,3.30
2022-11-05T01:58:14.764Z,4.07
2022-11-05T02:00:44.317Z,4.50
2022-11-05T02:03:14.379Z,3.23
2022-11-05T02:05:43.118Z,3.90
2022-11-05T02:08:17.949Z,4.05
2022-11-05T02:10:48.483Z,3.33
2022-11-05T02:13:16.848Z,3.17
2022-11-05T02:15:57.201Z,4.10
2022-11-05T02:18:38.663Z,3.43
2022-11-05T02:21:31.092Z,3.57
2022-11-05T02:24:26.358Z,3.33
2022-11-05T02:27:14.191Z,3.57
2022-11-05T02:30:05.407Z,4.00
2022-11-05T02:32:56.268Z,3.60
2022-11-05T02:35:43.595Z,3.40
2022-11-05T02:38:27.523Z,3.67
2022-11-05T02:41:06.480Z,3.10
2022-11-05T02:43:44.147Z,3.10
2022-11-05T02:46:21.203Z,4.10
2022-11-05T02:48:59.511Z,3.53
2022-11-05T02:51:35.109Z,3.17
2022-11-05T02:54:10.775Z,3.63
2022-11-05T02:56:43.141Z,4.23
2022-11-05T02:59:11.582Z,4.50
2022-11-05T03:01:43.007Z,4.20
2022-11-05T03:04:15.495Z,4.07
2022-11-05T03:06:55.257Z,4.17
2022-11-05T03:09:43.288Z,5.00
2022-11-05T03:12:31.031Z,4.37
2022-11-05T03:15:09.046Z,4.30
2022-11-05T03:17:45.226Z,3.73
2022-11-05T03:20:21.104Z,4.33
2022-11-05T03:22:55.839Z,4.50
2022-11-05T03:25:27.005Z,4.77
2022-11-05T03:28:00.097Z,4.50
2022-11-05T03:30:28.419Z,4.37
2022-11-05T03:33:01.978Z,4.00
2022-11-05T03:35:36.503Z,3.80
2022-11-05T03:38:11.837Z,4.23
2022-11-05T03:40:42.331Z,4.17
2022-11-05T03:43:11.152Z,3.80
2022-11-05T03:45:45.109Z,3.80
2022-11-05T03:48:16.014Z,4.40
2022-11-05T03:50:52.612Z,4.07
2022-11-05T03:53:26.407Z,4.43
2022-11-05T03:56:09.136Z,3.77
2022-11-05T03:58:38.846Z,4.13
2022-11-05T04:01:07.307Z,4.43
2022-11-05T04:03:37.552Z,4.50
2022-11-05T04:06:27.041Z,3.93
2022-11-05T04:09:13.130Z,4.70
2022-11-05T04:11:58.898Z,4.17
2022-11-05T04:14:27.586Z,4.67
2022-11-05T04:17:08.873Z,4.27
2022-11-05T04:19:54.446Z,4.17
2022-11-05T04:22:42.210Z,4.00
2022-11-05T04:25:10.712Z,4.50
2022-11-05T04:27:39.138Z,4.53
2022-11-05T04:30:20.070Z,4.33
2022-11-05T04:32:59.812Z,4.50
2022-11-05T04:35:28.575Z,4.60
2022-11-05T04:37:58.447Z,3.77
2022-11-05T04:40:27.169Z,4.40
2022-11-05T04:42:56.665Z,4.33
2022-11-05T04:45:25.867Z,3.93
2022-11-05T04:47:54.611Z,4.20
2022-11-05T04:50:23.136Z,4.27
2022-11-05T04:52:51.356Z,4.57
2022-11-05T04:55:21.342Z,4.03
2022-11-05T04:57:50.795Z,4.40
2022-11-05T05:00:20.042Z,3.70
2022-11-05T05:02:48.949Z,4.90
2022-11-05T05:05:17.551Z,4.20
2022-11-05T05:07:45.964Z,4.10
2022-11-05T05:10:14.794Z,3.87
2022-11-05T05:12:44.673Z,3.80
2022-11-05T05:15:13.031Z,4.20
2022-11-05T05:17:41.342Z,3.50
2022-11-05T05:20:27.347Z,4.00
2022-11-05T05:22:56.663Z,4.23
2022-11-05T05:25:25.147Z,3.57
2022-11-05T05:27:57.551Z,4.03
2022-11-05T05:30:26.304Z,4.50
2022-11-05T05:32:54.674Z,3.83
2022-11-05T05:35:23.229Z,3.37
2022-11-05T05:37:56.406Z,4.03
2022-11-05T05:40:25.131Z,3.87
2022-11-05T05:42:56.869Z,3.80
2022-11-05T05:45:25.280Z,3.87
2022-11-05T05:47:55.932Z,3.90
2022-11-05T05:50:24.319Z,4.13
2022-11-05T05:52:52.659Z,3.63
2022-11-05T05:55:21.099Z,4.57
2022-11-05T05:57:49.559Z,3.77
2022-11-05T06:00:19.521Z,3.57
2022-11-05T06:02:48.020Z,3.87
2022-11-05T06:05:16.750Z,3.77
2022-11-05T06:07:45.129Z,4.03
2022-11-05T06:10:13.724Z,4.10
2022-11-05T06:12:42.050Z,3.70
2022-11-05T06:15:12.125Z,4.40
2022-11-05T06:17:44.159Z,4.77
2022-11-05T06:20:13.866Z,3.60
2022-11-05T06:22:42.350Z,4.07
2022-11-05T06:25:11.441Z,4.00
2022-11-05T06:27:40.368Z,3.53
2022-11-05T06:30:10.417Z,3.70
2022-11-05T06:32:38.904Z,4.00
2022-11-05T06:35:09.430Z,3.93
2022-11-05T06:37:37.784Z,4.07
2022-11-05T06:40:07.236Z,4.13
2022-11-05T06:42:35.983Z,4.13
2022-11-05T06:45:05.203Z,3.63
2022-11-05T06:47:33.462Z,3.93
2022-11-05T06:50:02.046Z,3.23
2022-11-05T06:52:33.959Z,4.40
2022-11-05T06:55:06.394Z,4.80
2022-11-05T06:57:34.687Z,3.50
2022-11-05T07:00:07.593Z,4.10
2022-11-05T07:02:37.139Z,3.20
2022-11-05T07:05:07.361Z,3.57
2022-11-05T07:07:37.326Z,3.27
2022-11-05T07:10:06.143Z,3.43
2022-11-05T07:12:34.478Z,3.30
2022-11-05T07:15:02.899Z,3.10
2022-11-05T07:17:31.842Z,3.53
2022-11-05T07:20:00.465Z,3.37
2022-11-05T07:22:28.982Z,2.97
2022-11-05T07:24:58.780Z,3.10
2022-11-05T07:27:27.595Z,3.70
2022-11-05T07:29:56.052Z,3.00
2022-11-05T07:32:24.762Z,2.93
2022-11-05T07:34:53.415Z,3.10
2022-11-05T07:37:21.696Z,3.33
2022-11-05T07:39:50.068Z,3.87
2022-11-05T07:42:19.837Z,3.73
2022-11-05T07:44:48.587Z,3.30
2022-11-05T07:47:17.013Z,3.77
2022-11-05T07:49:45.723Z,3.50
2022-11-05T07:52:14.157Z,3.70
2022-11-05T07:54:42.772Z,3.97
2022-11-05T07:57:11.237Z,3.73
2022-11-05T07:59:41.310Z,3.30
2022-11-05T08:02:12.127Z,3.80
2022-11-05T08:04:42.707Z,3.17
2022-11-05T08:07:11.229Z,3.00
2022-11-05T08:09:39.920Z,3.47
2022-11-05T08:12:09.020Z,4.23
2022-11-05T08:14:37.883Z,3.13
2022-11-05T08:17:07.641Z,3.43
2022-11-05T08:19:36.037Z,3.53
2022-11-05T08:22:04.404Z,3.50
2022-11-05T08:24:32.619Z,3.80
2022-11-05T08:27:00.980Z,3.27
2022-11-05T08:29:29.405Z,3.60
2022-11-05T08:31:59.120Z,3.50
2022-11-05T08:34:29.075Z,3.63
2022-11-05T08:36:57.370Z,3.53
2022-11-05T08:39:25.830Z,3.27
2022-11-05T08:41:54.445Z,3.40
2022-11-05T08:44:22.826Z,2.93
2022-11-05T08:46:51.214Z,3.67
2022-11-05T08:49:19.575Z,3.20
2022-11-05T08:51:49.878Z,2.93
2022-11-05T08:54:18.182Z,3.30
2022-11-05T08:56:46.888Z,3.63
2022-11-05T08:59:15.266Z,3.17
2022-11-05T09:01:44.134Z,3.50
2022-11-05T09:04:12.590Z,3.87
2022-11-05T09:06:40.928Z,3.13
2022-11-05T09:09:10.938Z,3.60
2022-11-05T09:12:09.817Z,2.97
2022-11-05T09:14:27.935Z,2.93
2022-11-05T09:16:56.232Z,3.17
2022-11-05T09:19:24.684Z,2.50
2022-11-05T09:21:53.200Z,2.80
2022-11-05T09:24:24.982Z,2.80
2022-11-05T09:26:53.303Z,2.97
2022-11-05T09:29:21.792Z,2.63
2022-11-05T09:31:50.186Z,2.60
2022-11-05T09:34:18.748Z,2.83
2022-11-05T09:36:47.363Z,3.00
2022-11-05T09:39:15.981Z,2.90
2022-11-05T09:41:47.279Z,2.97
2022-11-05T09:44:19.734Z,3.17
2022-11-05T09:46:51.375Z,2.87
2022-11-05T09:49:27.640Z,3.10
2022-11-05T09:51:57.573Z,2.80
2022-11-05T09:54:33.364Z,2.67
2022-11-05T09:57:04.328Z,2.63
2022-11-05T09:59:38.553Z,3.13
2022-11-05T10:02:17.994Z,2.57
2022-11-05T10:04:49.534Z,2.40
2022-11-05T10:07:21.342Z,2.90
2022-11-05T10:09:56.718Z,2.43
2022-11-05T10:12:32.226Z,2.50
2022-11-05T10:15:10.921Z,1.83
2022-11-05T10:17:42.293Z,2.47
2022-11-05T10:20:20.557Z,2.47
2022-11-05T10:22:51.254Z,2.57
2022-11-05T10:25:22.354Z,2.63
2022-11-05T10:27:56.624Z,2.73
2022-11-05T10:30:27.918Z,2.60
2022-11-05T10:32:59.035Z,2.07
2022-11-05T10:35:34.681Z,1.93
2022-11-05T10:38:04.037Z,1.93
2022-11-05T10:40:39.900Z,2.33
2022-11-05T10:43:16.822Z,2.40
2022-11-05T10:45:52.243Z,2.33
2022-11-05T10:48:44.331Z,2.30
2022-11-05T10:51:14.930Z,2.00
2022-11-05T10:53:55.968Z,2.13
2022-11-05T10:56:36.027Z,1.87
2022-11-05T10:59:20.099Z,1.20
2022-11-05T11:01:48.570Z,1.80
2022-11-05T11:04:21.942Z,1.73
2022-11-05T11:06:53.103Z,1.83
2022-11-05T11:09:25.935Z,1.80
2022-11-05T11:12:03.164Z,2.20
2022-11-05T11:14:35.276Z,1.48
2022-11-05T11:17:31.060Z,1.80
2022-11-05T11:20:26.082Z,1.47
2022-11-05T11:23:13.121Z,1.87
2022-11-05T11:25:52.954Z,1.60
2022-11-05T11:28:25.614Z,1.80
2022-11-05T11:31:03.590Z,1.40
2022-11-05T11:33:37.652Z,1.27
2022-11-05T11:36:07.852Z,2.20
2022-11-05T11:38:37.812Z,1.17
2022-11-05T11:41:21.194Z,1.13
2022-11-05T11:43:50.450Z,1.27
2022-11-05T11:46:22.741Z,1.60
2022-11-05T11:48:53.178Z,1.40
2022-11-05T11:51:32.605Z,1.70
2022-11-05T11:54:08.043Z,1.83
2022-11-05T11:56:45.943Z,1.77
2022-11-05T11:59:40.575Z,1.63
2022-11-05T12:02:46.636Z,1.40
2022-11-05T12:05:26.166Z,1.33
2022-11-05T12:08:00.137Z,1.23
2022-11-05T12:10:52.274Z,1.53
2022-11-05T12:13:54.484Z,1.40
2022-11-05T12:16:53.865Z,1.03
2022-11-05T12:19:49.102Z,1.10
2022-11-05T12:22:37.941Z,1.40
2022-11-05T12:25:20.728Z,0.95
2022-11-05T12:28:05.559Z,1.20
2022-11-05T12:30:44.514Z,1.60
2022-11-05T12:33:26.160Z,1.30
2022-11-05T12:36:09.090Z,1.17
2022-11-05T12:38:58.621Z,1.13
2022-11-05T12:41:33.012Z,1.88
2022-11-05T12:44:29.485Z,1.20
2022-11-05T12:47:16.751Z,1.05
2022-11-05T12:50:11.335Z,1.40
2022-11-05T12:53:00.841Z,1.10
2022-11-05T12:55:47.114Z,1.00
2022-11-05T12:58:27.002Z,0.90
2022-11-05T13:01:01.483Z,1.13
2022-11-05T13:03:41.121Z,1.47
2022-11-05T13:06:22.187Z,1.42
2022-11-05T13:09:03.973Z,0.90
2022-11-05T13:11:40.393Z,1.25
2022-11-05T13:14:17.592Z,1.20
2022-11-05T13:16:49.671Z,1.23
2022-11-05T13:19:23.604Z,1.23
2022-11-05T13:21:55.907Z,1.15
2022-11-05T13:24:29.765Z,1.20
2022-11-05T13:27:05.031Z,1.00
2022-11-05T13:29:36.684Z,1.75
2022-11-05T13:32:13.455Z,1.05
2022-11-05T13:34:42.115Z,1.85
2022-11-05T13:37:30.137Z,1.45
2022-11-05T13:40:03.708Z,1.30
2022-11-05T13:43:01.722Z,1.70
2022-11-05T13:45:48.151Z,1.20
2022-11-05T13:48:46.059Z,1.20
2022-11-05T13:51:38.688Z,1.45
2022-11-05T13:54:37.548Z,1.95
2022-11-05T13:57:27.813Z,1.80
2022-11-05T14:00:05.216Z,1.30
2022-11-05T14:02:40.181Z,1.65
2022-11-05T14:05:09.460Z,1.55
2022-11-05T14:07:41.095Z,1.15
2022-11-05T14:10:19.255Z,1.17
2022-11-05T14:12:52.713Z,1.80
2022-11-05T14:15:24.670Z,0.93
2022-11-05T14:17:58.861Z,1.50
2022-11-05T14:20:47.779Z,1.17
2022-11-05T14:23:42.084Z,1.37
2022-11-05T14:26:16.914Z,1.73
2022-11-05T14:28:50.177Z,1.50
2022-11-05T14:32:02.851Z,1.10
2022-11-05T14:34:42.079Z,1.50
2022-11-05T14:37:25.527Z,1.35
2022-11-05T14:39:55.461Z,1.60
2022-11-05T14:42:29.618Z,1.40
2022-11-05T14:45:22.441Z,1.50
2022-11-05T14:47:56.492Z,1.03
2022-11-05T14:50:32.399Z,1.60
2022-11-05T14:53:10.828Z,1.60
2022-11-05T14:55:43.119Z,1.57
2022-11-05T14:58:31.791Z,1.93
2022-11-05T15:01:03.865Z,1.77
2022-11-05T15:04:04.121Z,1.70
2022-11-05T15:06:35.349Z,1.70
2022-11-05T15:09:30.560Z,2.27
2022-11-05T15:12:13.255Z,1.90
2022-11-05T15:14:49.400Z,1.70
2022-11-05T15:17:26.665Z,2.40
2022-11-05T15:19:55.715Z,1.70
2022-11-05T15:22:31.437Z,2.40
2022-11-05T15:25:01.098Z,1.90
2022-11-05T15:27:47.824Z,2.40
2022-11-05T15:30:19.067Z,2.33
2022-11-05T15:32:49.345Z,1.80
2022-11-05T15:35:26.904Z,2.20
2022-11-05T15:38:02.149Z,1.67
2022-11-05T15:40:37.943Z,2.33
2022-11-05T15:43:11.240Z,2.00
2022-11-05T15:45:40.266Z,1.70
2022-11-05T15:48:19.527Z,2.87
2022-11-05T15:50:47.949Z,2.17
2022-11-05T15:53:44.102Z,1.80
2022-11-05T15:56:13.293Z,1.77
2022-11-05T15:58:48.575Z,1.87
2022-11-05T16:01:22.968Z,1.63
2022-11-05T16:03:54.121Z,2.10
2022-11-05T16:06:23.782Z,3.37
2022-11-05T16:08:52.471Z,2.07
2022-11-05T16:11:24.604Z,2.03
2022-11-05T16:13:53.431Z,2.13
2022-11-05T16:16:32.822Z,2.10
2022-11-05T16:19:02.756Z,2.50
2022-11-05T16:21:31.125Z,2.17
2022-11-05T16:24:01.202Z,2.40
2022-11-05T16:27:02.346Z,2.20
2022-11-05T16:29:29.111Z,2.37
2022-11-05T16:31:59.067Z,2.60
2022-11-05T16:34:38.182Z,2.63
2022-11-05T16:37:08.263Z,3.00
2022-11-05T16:39:36.677Z,3.70
2022-11-05T16:42:32.824Z,3.40
2022-11-05T16:45:01.184Z,3.67
2022-11-05T16:47:31.320Z,3.20
2022-11-05T16:50:01.256Z,3.10
2022-11-05T16:52:29.793Z,2.73
2022-11-05T16:54:58.074Z,2.60
2022-11-05T16:57:28.522Z,3.00
2022-11-05T16:59:57.333Z,4.53
2022-11-05T17:02:26.084Z,3.00
2022-11-05T17:04:54.757Z,2.90
2022-11-05T17:07:24.708Z,2.20
2022-11-05T17:09:53.053Z,2.30
2022-11-05T17:12:21.509Z,2.47
2022-11-05T17:14:49.956Z,2.73
2022-11-05T17:17:18.236Z,2.37
2022-11-05T17:19:47.112Z,2.60
2022-11-05T17:22:15.396Z,3.50
2022-11-05T17:24:45.224Z,2.47
2022-11-05T17:27:13.717Z,3.03
2022-11-05T17:29:42.224Z,2.80
2022-11-05T17:32:10.531Z,2.27
2022-11-05T17:34:40.387Z,2.93
2022-11-05T17:37:08.834Z,2.20
2022-11-05T17:39:37.252Z,2.40
2022-11-05T17:42:07.150Z,2.30
2022-11-05T17:44:35.810Z,2.60
2022-11-05T17:47:04.188Z,2.57
2022-11-05T17:49:32.608Z,2.43
2022-11-05T17:52:01.509Z,2.30
2022-11-05T17:54:29.792Z,3.27
2022-11-05T17:56:58.532Z,2.77
2022-11-05T17:59:28.884Z,2.30
2022-11-05T18:01:57.920Z,2.93
2022-11-05T18:04:26.756Z,2.43
2022-11-05T18:06:55.188Z,3.00
2022-11-05T18:09:23.693Z,3.67
2022-11-05T18:11:51.982Z,2.90
2022-11-05T18:14:23.997Z,2.63
2022-11-05T18:16:55.484Z,2.80
2022-11-05T18:19:23.943Z,3.60
2022-11-05T18:21:52.286Z,3.00
2022-11-05T18:24:20.742Z,3.17
2022-11-05T18:26:49.332Z,3.10
2022-11-05T18:29:17.674Z,2.87
2022-11-05T18:31:45.975Z,3.43
2022-11-05T18:34:15.698Z,3.93
2022-11-05T18:36:46.012Z,4.67
2022-11-05T18:39:14.598Z,3.30
2022-11-05T18:41:42.962Z,3.50
2022-11-05T18:44:12.657Z,3.17
2022-11-05T18:46:57.595Z,3.00
2022-11-05T18:49:28.333Z,2.87
2022-11-05T18:51:56.730Z,6.40
2022-11-05T18:54:25.004Z,4.50
2022-11-05T18:56:53.364Z,4.70
2022-11-05T18:59:36.821Z,3.87
2022-11-05T19:02:07.167Z,3.60
2022-11-05T19:04:38.702Z,3.00
2022-11-05T19:07:08.052Z,3.83
2022-11-05T19:09:36.728Z,3.03
2022-11-05T19:12:07.918Z,3.33
2022-11-05T19:14:36.998Z,3.47
2022-11-05T19:17:05.740Z,2.70
2022-11-05T19:19:34.442Z,3.37
2022-11-05T19:22:04.600Z,2.77
2022-11-05T19:24:33.610Z,3.13
2022-11-05T19:27:01.997Z,3.93
2022-11-05T19:29:30.538Z,3.87
2022-11-05T19:31:59.469Z,5.30
2022-11-05T19:34:28.074Z,4.00
2022-11-05T19:36:57.149Z,6.17
2022-11-05T19:39:27.462Z,3.40
2022-11-05T19:42:00.431Z,3.50
2022-11-05T19:44:31.906Z,3.80
2022-11-05T19:47:00.527Z,3.87
2022-11-05T19:49:29.448Z,3.80
2022-11-05T19:51:59.003Z,3.50
2022-11-05T19:54:28.769Z,3.57
2022-11-05T19:56:57.491Z,3.53
2022-11-05T19:59:26.391Z,3.53
2022-11-05T20:01:55.014Z,3.40
2022-11-05T20:04:23.413Z,3.03
2022-11-05T20:06:52.055Z,4.40
2022-11-05T20:09:22.596Z,6.20
2022-11-05T20:11:54.945Z,4.10
2022-11-05T20:14:24.444Z,4.27
2022-11-05T20:16:53.284Z,4.20
2022-11-05T20:19:23.117Z,5.30
2022-11-05T20:21:51.731Z,4.60
2022-11-05T20:24:25.105Z,5.13
2022-11-05T20:26:57.198Z,4.43
2022-11-05T20:29:32.131Z,4.47
2022-11-05T20:32:03.819Z,5.13
2022-11-05T20:34:33.596Z,5.50
2022-11-05T20:37:02.031Z,4.90
2022-11-05T20:39:30.425Z,5.27
2022-11-05T20:42:00.688Z,5.57
2022-11-05T20:44:29.331Z,5.73
2022-11-05T20:46:57.885Z,5.70
2022-11-05T20:49:26.379Z,5.17
2022-11-05T20:51:55.042Z,5.70
2022-11-05T20:54:23.575Z,5.17
2022-11-05T20:56:52.503Z,5.17
2022-11-05T20:59:22.469Z,5.57
2022-11-05T21:01:52.029Z,5.10
2022-11-05T21:04:20.516Z,5.67
2022-11-05T21:06:48.927Z,5.53
2022-11-05T21:09:17.298Z,5.23
2022-11-05T21:12:03.102Z,6.13
2022-11-05T21:14:33.006Z,5.83
2022-11-05T21:17:01.398Z,5.60
2022-11-05T21:19:32.089Z,5.43
2022-11-05T21:22:00.565Z,5.10
2022-11-05T21:24:29.172Z,5.33
2022-11-05T21:26:57.540Z,5.40
2022-11-05T21:29:26.496Z,5.30
2022-11-05T21:31:56.222Z,5.00
2022-11-05T21:34:24.687Z,5.90
2022-11-05T21:36:53.588Z,4.97
2022-11-05T21:39:21.977Z,4.67
2022-11-05T21:41:50.333Z,4.87
2022-11-05T21:44:18.860Z,5.13
2022-11-05T21:46:47.223Z,4.73
2022-11-05T21:49:17.258Z,5.37
2022-11-05T21:52:05.665Z,5.13
2022-11-05T21:54:53.889Z,4.63
2022-11-05T21:57:54.324Z,5.23
2022-11-05T22:00:22.817Z,4.90
2022-11-05T22:02:51.346Z,4.73
2022-11-05T22:05:21.462Z,4.53
2022-11-05T22:07:50.486Z,4.87
2022-11-05T22:10:19.012Z,4.93
2022-11-05T22:12:47.403Z,4.33
2022-11-05T22:15:15.874Z,6.23
2022-11-05T22:17:47.230Z,5.57
2022-11-05T22:20:16.685Z,4.17
2022-11-05T22:22:46.661Z,4.57
2022-11-05T22:25:16.647Z,4.17
2022-11-05T22:27:45.216Z,4.20
2022-11-05T22:30:14.727Z,4.60
2022-11-05T22:32:43.066Z,4.63
2022-11-05T22:35:11.656Z,4.00
2022-11-05T22:37:40.236Z,4.77
2022-11-05T22:40:10.953Z,4.70
2022-11-05T22:42:39.733Z,4.83
2022-11-05T22:45:08.978Z,4.83
2022-11-05T22:47:37.823Z,4.43
2022-11-05T22:50:07.413Z,4.40
2022-11-05T22:52:35.798Z,4.60
2022-11-05T22:55:06.361Z,4.50
2022-11-05T22:57:36.043Z,4.43
2022-11-05T23:00:06.295Z,4.17
2022-11-05T23:02:35.131Z,3.83
2022-11-05T23:05:03.527Z,3.80
2022-11-05T23:07:49.352Z,4.27
2022-11-05T23:10:35.394Z,4.07
2022-11-05T23:13:05.979Z,3.70
2022-11-05T23:15:47.981Z,4.43
2022-11-05T23:18:33.951Z,3.43
2022-11-05T23:21:23.026Z,3.60
2022-11-05T23:24:07.192Z,4.30
2022-11-05T23:26:54.039Z,3.60
2022-11-05T23:29:26.186Z,3.27
2022-11-05T23:32:12.226Z,3.40
2022-11-05T23:34:41.032Z,3.73
2022-11-05T23:37:27.124Z,3.67
2022-11-05T23:39:56.207Z,3.23
2022-11-05T23:42:42.526Z,3.17
2022-11-05T23:45:30.508Z,3.50
2022-11-05T23:48:16.790Z,2.87
2022-11-05T23:50:48.137Z,2.77
2022-11-05T23:53:17.101Z,2.90
2022-11-05T23:55:45.671Z,3.13
2022-11-05T23:58:14.374Z,3.00
